sensor_id;sensor_type;location;lat;lon;timestamp;temperature;humidity
25512;DHT22;13414;44.534;18.700;2022-12-19T00:01:32;-2.20;99.90
25512;DHT22;13414;44.534;18.700;2022-12-19T00:04:02;-2.20;99.90
25512;DHT22;13414;44.534;18.700;2022-12-19T00:06:29;-2.20;99.90
25512;DHT22;13414;44.534;18.700;2022-12-19T00:08:58;-2.30;99.90
25512;DHT22;13414;44.534;18.700;2022-12-19T00:11:27;-2.20;99.90
25512;DHT22;13414;44.534;18.700;2022-12-19T00:13:55;-2.20;99.90
25512;DHT22;13414;44.534;18.700;2022-12-19T00:16:24;-2.20;99.90
25512;DHT22;13414;44.534;18.700;2022-12-19T00:18:54;-2.20;99.90
25512;DHT22;13414;44.534;18.700;2022-12-19T00:21:24;-2.20;99.90
25512;DHT22;13414;44.534;18.700;2022-12-19T00:23:52;-2.30;99.90
25512;DHT22;13414;44.534;18.700;2022-12-19T00:26:22;-2.20;99.90
25512;DHT22;13414;44.534;18.700;2022-12-19T00:28:52;-2.20;99.90
25512;DHT22;13414;44.534;18.700;2022-12-19T00:31:21;-2.20;99.90
25512;DHT22;13414;44.534;18.700;2022-12-19T00:33:49;-2.10;99.90
25512;DHT22;13414;44.534;18.700;2022-12-19T00:36:18;-2.10;99.90
25512;DHT22;13414;44.534;18.700;2022-12-19T00:38:46;-2.10;99.90
25512;DHT22;13414;44.534;18.700;2022-12-19T00:41:15;-2.10;99.90
25512;DHT22;13414;44.534;18.700;2022-12-19T00:43:44;-2.20;99.90
25512;DHT22;13414;44.534;18.700;2022-12-19T00:46:15;-2.20;99.90
25512;DHT22;13414;44.534;18.700;2022-12-19T00:48:42;-2.30;99.90
25512;DHT22;13414;44.534;18.700;2022-12-19T00:51:12;-2.30;99.90
25512;DHT22;13414;44.534;18.700;2022-12-19T00:53:41;-2.40;99.90
25512;DHT22;13414;44.534;18.700;2022-12-19T00:56:11;-2.50;99.90
25512;DHT22;13414;44.534;18.700;2022-12-19T00:58:39;-2.50;99.90
25512;DHT22;13414;44.534;18.700;2022-12-19T01:01:10;-2.50;99.90
25512;DHT22;13414;44.534;18.700;2022-12-19T01:03:38;-2.40;99.90
25512;DHT22;13414;44.534;18.700;2022-12-19T01:06:06;-2.40;99.90
25512;DHT22;13414;44.534;18.700;2022-12-19T01:08:34;-2.50;99.90
25512;DHT22;13414;44.534;18.700;2022-12-19T01:11:02;-2.50;99.90
25512;DHT22;13414;44.534;18.700;2022-12-19T01:13:31;-2.50;99.90
25512;DHT22;13414;44.534;18.700;2022-12-19T01:16:01;-2.60;99.90
25512;DHT22;13414;44.534;18.700;2022-12-19T01:18:31;-2.60;99.90
25512;DHT22;13414;44.534;18.700;2022-12-19T01:21:00;-2.70;99.90
25512;DHT22;13414;44.534;18.700;2022-12-19T01:23:27;-2.70;99.90
25512;DHT22;13414;44.534;18.700;2022-12-19T01:25:55;-2.70;99.90
25512;DHT22;13414;44.534;18.700;2022-12-19T01:28:23;-2.70;99.90
25512;DHT22;13414;44.534;18.700;2022-12-19T01:30:52;-2.70;99.90
25512;DHT22;13414;44.534;18.700;2022-12-19T01:33:22;-2.80;99.90
25512;DHT22;13414;44.534;18.700;2022-12-19T01:35:51;-2.70;99.90
25512;DHT22;13414;44.534;18.700;2022-12-19T01:38:19;-2.80;99.90
25512;DHT22;13414;44.534;18.700;2022-12-19T01:40:51;-2.80;99.90
25512;DHT22;13414;44.534;18.700;2022-12-19T01:43:19;-2.80;99.90
25512;DHT22;13414;44.534;18.700;2022-12-19T01:45:49;-2.80;99.90
25512;DHT22;13414;44.534;18.700;2022-12-19T01:48:22;-2.90;99.90
25512;DHT22;13414;44.534;18.700;2022-12-19T01:50:57;-2.90;99.90
25512;DHT22;13414;44.534;18.700;2022-12-19T01:53:27;-2.80;99.90
25512;DHT22;13414;44.534;18.700;2022-12-19T01:55:55;-2.90;99.90
25512;DHT22;13414;44.534;18.700;2022-12-19T01:58:24;-2.90;99.90
25512;DHT22;13414;44.534;18.700;2022-12-19T02:00:51;-2.90;99.90
25512;DHT22;13414;44.534;18.700;2022-12-19T02:03:22;-2.90;99.90
25512;DHT22;13414;44.534;18.700;2022-12-19T02:05:51;-3.00;99.90
25512;DHT22;13414;44.534;18.700;2022-12-19T02:08:22;-3.00;99.90
25512;DHT22;13414;44.534;18.700;2022-12-19T02:10:50;-3.00;99.90
25512;DHT22;13414;44.534;18.700;2022-12-19T02:13:17;-3.00;99.90
25512;DHT22;13414;44.534;18.700;2022-12-19T02:15:51;-3.00;99.90
25512;DHT22;13414;44.534;18.700;2022-12-19T02:18:29;-3.00;99.90
25512;DHT22;13414;44.534;18.700;2022-12-19T02:21:40;-3.00;99.90
25512;DHT22;13414;44.534;18.700;2022-12-19T02:24:35;-3.10;99.90
25512;DHT22;13414;44.534;18.700;2022-12-19T02:27:32;-3.10;99.90
25512;DHT22;13414;44.534;18.700;2022-12-19T02:30:09;-3.10;99.90
25512;DHT22;13414;44.534;18.700;2022-12-19T02:33:00;-3.20;99.90
25512;DHT22;13414;44.534;18.700;2022-12-19T02:35:38;-3.20;99.90
25512;DHT22;13414;44.534;18.700;2022-12-19T02:38:11;-3.20;99.90
25512;DHT22;13414;44.534;18.700;2022-12-19T02:40:43;-3.20;99.90
25512;DHT22;13414;44.534;18.700;2022-12-19T02:43:15;-3.20;99.90
25512;DHT22;13414;44.534;18.700;2022-12-19T02:45:44;-3.20;99.90
25512;DHT22;13414;44.534;18.700;2022-12-19T02:48:14;-3.20;99.90
25512;DHT22;13414;44.534;18.700;2022-12-19T02:50:44;-3.20;99.90
25512;DHT22;13414;44.534;18.700;2022-12-19T02:53:13;-3.20;99.90
25512;DHT22;13414;44.534;18.700;2022-12-19T02:55:46;-3.30;99.90
25512;DHT22;13414;44.534;18.700;2022-12-19T02:58:25;-3.30;99.90
25512;DHT22;13414;44.534;18.700;2022-12-19T03:01:00;-3.20;99.90
25512;DHT22;13414;44.534;18.700;2022-12-19T03:03:38;-3.20;99.90
25512;DHT22;13414;44.534;18.700;2022-12-19T03:06:19;-3.20;99.90
25512;DHT22;13414;44.534;18.700;2022-12-19T03:08:54;-3.30;99.90
25512;DHT22;13414;44.534;18.700;2022-12-19T03:11:27;-3.30;99.90
25512;DHT22;13414;44.534;18.700;2022-12-19T03:13:58;-3.20;99.90
25512;DHT22;13414;44.534;18.700;2022-12-19T03:16:26;-3.20;99.90
25512;DHT22;13414;44.534;18.700;2022-12-19T03:18:56;-3.20;99.90
25512;DHT22;13414;44.534;18.700;2022-12-19T03:21:28;-3.20;99.90
25512;DHT22;13414;44.534;18.700;2022-12-19T03:23:58;-3.10;99.90
25512;DHT22;13414;44.534;18.700;2022-12-19T03:26:28;-3.10;99.90
25512;DHT22;13414;44.534;18.700;2022-12-19T03:29:01;-3.00;99.90
25512;DHT22;13414;44.534;18.700;2022-12-19T03:31:33;-3.00;99.90
25512;DHT22;13414;44.534;18.700;2022-12-19T03:34:07;-2.90;99.90
25512;DHT22;13414;44.534;18.700;2022-12-19T03:36:38;-2.80;99.90
25512;DHT22;13414;44.534;18.700;2022-12-19T03:39:07;-2.70;99.90
25512;DHT22;13414;44.534;18.700;2022-12-19T03:41:37;-2.70;99.90
25512;DHT22;13414;44.534;18.700;2022-12-19T03:44:25;-2.70;99.90
25512;DHT22;13414;44.534;18.700;2022-12-19T03:46:57;-2.70;99.90
25512;DHT22;13414;44.534;18.700;2022-12-19T03:49:28;-2.60;99.90
25512;DHT22;13414;44.534;18.700;2022-12-19T03:52:10;-2.60;99.90
25512;DHT22;13414;44.534;18.700;2022-12-19T03:54:41;-2.60;99.90
25512;DHT22;13414;44.534;18.700;2022-12-19T03:57:18;-2.60;99.90
25512;DHT22;13414;44.534;18.700;2022-12-19T03:59:48;-2.70;99.90
25512;DHT22;13414;44.534;18.700;2022-12-19T04:02:19;-2.70;99.90
25512;DHT22;13414;44.534;18.700;2022-12-19T04:04:51;-2.70;99.90
25512;DHT22;13414;44.534;18.700;2022-12-19T04:07:20;-2.70;99.90
25512;DHT22;13414;44.534;18.700;2022-12-19T04:09:49;-2.70;99.90
25512;DHT22;13414;44.534;18.700;2022-12-19T04:12:18;-2.60;99.90
25512;DHT22;13414;44.534;18.700;2022-12-19T04:14:47;-2.50;99.90
25512;DHT22;13414;44.534;18.700;2022-12-19T04:17:21;-2.50;99.90
25512;DHT22;13414;44.534;18.700;2022-12-19T04:20:19;-2.50;99.90
25512;DHT22;13414;44.534;18.700;2022-12-19T04:22:51;-2.40;99.90
25512;DHT22;13414;44.534;18.700;2022-12-19T04:25:26;-2.30;99.90
25512;DHT22;13414;44.534;18.700;2022-12-19T04:27:57;-2.30;99.90
25512;DHT22;13414;44.534;18.700;2022-12-19T04:30:26;-2.30;99.90
25512;DHT22;13414;44.534;18.700;2022-12-19T04:32:54;-2.30;99.90
25512;DHT22;13414;44.534;18.700;2022-12-19T04:35:23;-2.20;99.90
25512;DHT22;13414;44.534;18.700;2022-12-19T04:37:51;-2.20;99.90
25512;DHT22;13414;44.534;18.700;2022-12-19T04:40:18;-2.10;99.90
25512;DHT22;13414;44.534;18.700;2022-12-19T04:42:45;-2.00;99.90
25512;DHT22;13414;44.534;18.700;2022-12-19T04:45:15;-2.00;99.90
25512;DHT22;13414;44.534;18.700;2022-12-19T04:47:43;-1.90;99.90
25512;DHT22;13414;44.534;18.700;2022-12-19T04:50:10;-1.90;99.90
25512;DHT22;13414;44.534;18.700;2022-12-19T04:52:39;-1.90;99.90
25512;DHT22;13414;44.534;18.700;2022-12-19T04:55:07;-1.80;99.90
25512;DHT22;13414;44.534;18.700;2022-12-19T04:57:34;-1.70;99.90
25512;DHT22;13414;44.534;18.700;2022-12-19T05:00:03;-1.60;99.90
25512;DHT22;13414;44.534;18.700;2022-12-19T05:02:33;-1.60;99.90
25512;DHT22;13414;44.534;18.700;2022-12-19T05:05:05;-1.60;99.90
25512;DHT22;13414;44.534;18.700;2022-12-19T05:07:32;-1.60;99.90
25512;DHT22;13414;44.534;18.700;2022-12-19T05:10:01;-1.60;99.90
25512;DHT22;13414;44.534;18.700;2022-12-19T05:12:28;-1.60;99.90
25512;DHT22;13414;44.534;18.700;2022-12-19T05:14:56;-1.60;99.90
25512;DHT22;13414;44.534;18.700;2022-12-19T05:17:23;-1.50;99.90
25512;DHT22;13414;44.534;18.700;2022-12-19T05:19:50;-1.50;99.90
25512;DHT22;13414;44.534;18.700;2022-12-19T05:22:18;-1.60;99.90
25512;DHT22;13414;44.534;18.700;2022-12-19T05:24:45;-1.60;99.90
25512;DHT22;13414;44.534;18.700;2022-12-19T05:27:13;-1.60;99.90
25512;DHT22;13414;44.534;18.700;2022-12-19T05:29:41;-1.50;99.90
25512;DHT22;13414;44.534;18.700;2022-12-19T05:32:08;-1.60;99.90
25512;DHT22;13414;44.534;18.700;2022-12-19T05:34:35;-1.50;99.90
25512;DHT22;13414;44.534;18.700;2022-12-19T05:37:03;-1.50;99.90
25512;DHT22;13414;44.534;18.700;2022-12-19T05:39:30;-1.60;99.90
25512;DHT22;13414;44.534;18.700;2022-12-19T05:41:57;-1.60;99.90
25512;DHT22;13414;44.534;18.700;2022-12-19T05:44:26;-1.60;99.90
25512;DHT22;13414;44.534;18.700;2022-12-19T05:46:53;-1.70;99.90
25512;DHT22;13414;44.534;18.700;2022-12-19T05:49:20;-1.70;99.90
25512;DHT22;13414;44.534;18.700;2022-12-19T05:51:48;-1.60;99.90
25512;DHT22;13414;44.534;18.700;2022-12-19T05:54:15;-1.60;99.90
25512;DHT22;13414;44.534;18.700;2022-12-19T05:56:42;-1.60;99.90
25512;DHT22;13414;44.534;18.700;2022-12-19T05:59:09;-1.60;99.90
25512;DHT22;13414;44.534;18.700;2022-12-19T06:01:38;-1.60;99.90
25512;DHT22;13414;44.534;18.700;2022-12-19T06:04:05;-1.60;99.90
25512;DHT22;13414;44.534;18.700;2022-12-19T06:06:34;-1.60;99.90
25512;DHT22;13414;44.534;18.700;2022-12-19T06:09:02;-1.50;99.90
25512;DHT22;13414;44.534;18.700;2022-12-19T06:11:29;-1.50;99.90
25512;DHT22;13414;44.534;18.700;2022-12-19T06:13:56;-1.50;99.90
25512;DHT22;13414;44.534;18.700;2022-12-19T06:16:24;-1.40;99.90
25512;DHT22;13414;44.534;18.700;2022-12-19T06:18:52;-1.40;99.90
25512;DHT22;13414;44.534;18.700;2022-12-19T06:21:21;-1.40;99.90
25512;DHT22;13414;44.534;18.700;2022-12-19T06:23:49;-1.40;99.90
25512;DHT22;13414;44.534;18.700;2022-12-19T06:26:18;-1.30;99.90
25512;DHT22;13414;44.534;18.700;2022-12-19T06:28:46;-1.20;99.90
25512;DHT22;13414;44.534;18.700;2022-12-19T06:31:14;-1.20;99.90
25512;DHT22;13414;44.534;18.700;2022-12-19T06:33:41;-1.20;99.90
25512;DHT22;13414;44.534;18.700;2022-12-19T06:36:12;-1.20;99.90
25512;DHT22;13414;44.534;18.700;2022-12-19T06:38:40;-1.20;99.90
25512;DHT22;13414;44.534;18.700;2022-12-19T06:41:08;-1.20;99.90
25512;DHT22;13414;44.534;18.700;2022-12-19T06:44:06;-1.20;99.90
25512;DHT22;13414;44.534;18.700;2022-12-19T06:46:34;-1.10;99.90
25512;DHT22;13414;44.534;18.700;2022-12-19T06:49:02;-1.10;99.90
25512;DHT22;13414;44.534;18.700;2022-12-19T06:51:31;-1.10;99.90
25512;DHT22;13414;44.534;18.700;2022-12-19T06:53:58;-1.20;99.90
25512;DHT22;13414;44.534;18.700;2022-12-19T06:56:33;-1.20;99.90
25512;DHT22;13414;44.534;18.700;2022-12-19T06:59:01;-1.30;99.90
25512;DHT22;13414;44.534;18.700;2022-12-19T07:01:39;-1.20;99.90
25512;DHT22;13414;44.534;18.700;2022-12-19T07:04:13;-1.20;99.90
25512;DHT22;13414;44.534;18.700;2022-12-19T07:06:42;-1.10;99.90
25512;DHT22;13414;44.534;18.700;2022-12-19T07:09:09;-1.00;99.90
25512;DHT22;13414;44.534;18.700;2022-12-19T07:11:37;-1.00;99.90
25512;DHT22;13414;44.534;18.700;2022-12-19T07:14:04;-0.90;99.90
25512;DHT22;13414;44.534;18.700;2022-12-19T07:16:31;-0.90;99.90
25512;DHT22;13414;44.534;18.700;2022-12-19T07:18:58;-0.70;99.90
25512;DHT22;13414;44.534;18.700;2022-12-19T07:21:26;-0.70;99.90
25512;DHT22;13414;44.534;18.700;2022-12-19T07:23:54;-0.60;99.90
25512;DHT22;13414;44.534;18.700;2022-12-19T07:26:22;-0.60;99.90
25512;DHT22;13414;44.534;18.700;2022-12-19T07:28:49;-0.60;99.90
25512;DHT22;13414;44.534;18.700;2022-12-19T07:31:16;-0.60;99.90
25512;DHT22;13414;44.534;18.700;2022-12-19T07:33:43;-0.50;99.90
25512;DHT22;13414;44.534;18.700;2022-12-19T07:36:11;-0.30;99.90
25512;DHT22;13414;44.534;18.700;2022-12-19T07:38:38;-0.20;99.90
25512;DHT22;13414;44.534;18.700;2022-12-19T07:41:07;-0.10;99.90
25512;DHT22;13414;44.534;18.700;2022-12-19T07:43:34;-0.10;99.90
25512;DHT22;13414;44.534;18.700;2022-12-19T07:46:01;-0.10;99.90
25512;DHT22;13414;44.534;18.700;2022-12-19T07:48:30;0.10;99.90
25512;DHT22;13414;44.534;18.700;2022-12-19T07:50:58;0.10;99.90
25512;DHT22;13414;44.534;18.700;2022-12-19T07:53:30;0.10;99.90
25512;DHT22;13414;44.534;18.700;2022-12-19T07:55:57;0.20;99.90
25512;DHT22;13414;44.534;18.700;2022-12-19T07:58:26;0.20;99.90
25512;DHT22;13414;44.534;18.700;2022-12-19T08:00:54;0.20;99.90
25512;DHT22;13414;44.534;18.700;2022-12-19T08:03:23;0.30;99.90
25512;DHT22;13414;44.534;18.700;2022-12-19T08:05:51;0.40;99.90
25512;DHT22;13414;44.534;18.700;2022-12-19T08:08:18;0.40;99.90
25512;DHT22;13414;44.534;18.700;2022-12-19T08:10:46;0.60;99.90
25512;DHT22;13414;44.534;18.700;2022-12-19T08:13:13;0.60;99.90
25512;DHT22;13414;44.534;18.700;2022-12-19T08:15:42;0.40;99.90
25512;DHT22;13414;44.534;18.700;2022-12-19T08:18:09;0.50;99.90
25512;DHT22;13414;44.534;18.700;2022-12-19T08:20:37;0.70;99.90
25512;DHT22;13414;44.534;18.700;2022-12-19T08:23:04;0.70;99.90
25512;DHT22;13414;44.534;18.700;2022-12-19T08:25:32;0.70;99.90
25512;DHT22;13414;44.534;18.700;2022-12-19T08:27:59;0.80;99.90
25512;DHT22;13414;44.534;18.700;2022-12-19T08:30:27;0.90;99.90
25512;DHT22;13414;44.534;18.700;2022-12-19T08:32:55;1.10;99.90
25512;DHT22;13414;44.534;18.700;2022-12-19T08:35:23;1.10;99.90
25512;DHT22;13414;44.534;18.700;2022-12-19T08:37:50;1.30;99.90
25512;DHT22;13414;44.534;18.700;2022-12-19T08:40:17;1.60;99.90
25512;DHT22;13414;44.534;18.700;2022-12-19T08:42:45;1.90;99.90
25512;DHT22;13414;44.534;18.700;2022-12-19T08:45:12;1.90;99.90
25512;DHT22;13414;44.534;18.700;2022-12-19T08:47:39;2.10;99.90
25512;DHT22;13414;44.534;18.700;2022-12-19T08:50:08;1.90;99.90
25512;DHT22;13414;44.534;18.700;2022-12-19T08:52:36;1.80;99.90
25512;DHT22;13414;44.534;18.700;2022-12-19T08:55:04;1.90;99.90
25512;DHT22;13414;44.534;18.700;2022-12-19T08:57:32;2.00;99.90
25512;DHT22;13414;44.534;18.700;2022-12-19T08:59:59;2.20;99.90
25512;DHT22;13414;44.534;18.700;2022-12-19T09:02:27;2.50;99.90
25512;DHT22;13414;44.534;18.700;2022-12-19T09:04:55;2.70;99.90
25512;DHT22;13414;44.534;18.700;2022-12-19T09:07:23;2.70;99.90
25512;DHT22;13414;44.534;18.700;2022-12-19T09:09:51;2.60;99.90
25512;DHT22;13414;44.534;18.700;2022-12-19T09:12:18;2.80;99.90
25512;DHT22;13414;44.534;18.700;2022-12-19T09:14:46;2.80;99.90
25512;DHT22;13414;44.534;18.700;2022-12-19T09:17:13;3.00;99.90
25512;DHT22;13414;44.534;18.700;2022-12-19T09:19:41;3.00;1.00
25512;DHT22;13414;44.534;18.700;2022-12-19T09:22:10;3.20;1.00
25512;DHT22;13414;44.534;18.700;2022-12-19T09:27:21;3.60;1.00
25512;DHT22;13414;44.534;18.700;2022-12-19T09:29:49;3.60;1.00
25512;DHT22;13414;44.534;18.700;2022-12-19T09:32:16;3.70;1.00
25512;DHT22;13414;44.534;18.700;2022-12-19T09:34:43;4.00;1.00
25512;DHT22;13414;44.534;18.700;2022-12-19T09:37:15;4.10;1.00
25512;DHT22;13414;44.534;18.700;2022-12-19T09:39:42;4.20;1.00
25512;DHT22;13414;44.534;18.700;2022-12-19T09:45:30;3.80;1.00
25512;DHT22;13414;44.534;18.700;2022-12-19T09:48:00;3.80;1.00
25512;DHT22;13414;44.534;18.700;2022-12-19T09:50:34;3.20;1.00
25512;DHT22;13414;44.534;18.700;2022-12-19T09:53:04;3.30;1.00
25512;DHT22;13414;44.534;18.700;2022-12-19T09:55:35;3.50;1.00
25512;DHT22;13414;44.534;18.700;2022-12-19T09:58:07;3.60;1.00
25512;DHT22;13414;44.534;18.700;2022-12-19T10:00:42;3.60;1.00
25512;DHT22;13414;44.534;18.700;2022-12-19T10:03:19;3.50;1.00
25512;DHT22;13414;44.534;18.700;2022-12-19T10:05:51;3.30;1.00
25512;DHT22;13414;44.534;18.700;2022-12-19T10:08:23;3.30;1.00
25512;DHT22;13414;44.534;18.700;2022-12-19T10:11:00;3.30;1.00
25512;DHT22;13414;44.534;18.700;2022-12-19T10:13:46;3.40;1.00
25512;DHT22;13414;44.534;18.700;2022-12-19T10:16:23;3.60;1.00
25512;DHT22;13414;44.534;18.700;2022-12-19T10:18:54;3.60;1.00
25512;DHT22;13414;44.534;18.700;2022-12-19T10:21:29;3.80;1.00
25512;DHT22;13414;44.534;18.700;2022-12-19T10:26:59;4.00;1.00
25512;DHT22;13414;44.534;18.700;2022-12-19T10:29:42;4.20;1.00
25512;DHT22;13414;44.534;18.700;2022-12-19T10:32:22;4.30;1.00
25512;DHT22;13414;44.534;18.700;2022-12-19T10:34:52;4.10;1.00
25512;DHT22;13414;44.534;18.700;2022-12-19T10:37:23;4.20;1.00
25512;DHT22;13414;44.534;18.700;2022-12-19T10:39:59;4.30;1.00
25512;DHT22;13414;44.534;18.700;2022-12-19T10:42:39;4.30;1.00
25512;DHT22;13414;44.534;18.700;2022-12-19T10:45:13;4.40;99.90
25512;DHT22;13414;44.534;18.700;2022-12-19T10:47:42;4.50;1.00
25512;DHT22;13414;44.534;18.700;2022-12-19T10:50:20;4.60;1.00
25512;DHT22;13414;44.534;18.700;2022-12-19T10:52:51;4.40;6.30
25512;DHT22;13414;44.534;18.700;2022-12-19T10:55:41;4.30;1.00
25512;DHT22;13414;44.534;18.700;2022-12-19T10:58:27;4.40;1.00
25512;DHT22;13414;44.534;18.700;2022-12-19T11:01:09;4.50;1.00
25512;DHT22;13414;44.534;18.700;2022-12-19T11:03:41;4.40;91.30
25512;DHT22;13414;44.534;18.700;2022-12-19T11:06:39;4.50;1.00
25512;DHT22;13414;44.534;18.700;2022-12-19T11:09:23;4.60;1.00
25512;DHT22;13414;44.534;18.700;2022-12-19T11:12:01;4.70;1.00
25512;DHT22;13414;44.534;18.700;2022-12-19T11:14:38;4.80;1.00
25512;DHT22;13414;44.534;18.700;2022-12-19T11:17:23;4.80;1.00
25512;DHT22;13414;44.534;18.700;2022-12-19T11:19:55;4.90;1.00
25512;DHT22;13414;44.534;18.700;2022-12-19T11:22:25;5.00;1.00
25512;DHT22;13414;44.534;18.700;2022-12-19T11:24:54;5.00;1.00
25512;DHT22;13414;44.534;18.700;2022-12-19T11:27:35;5.20;1.00
25512;DHT22;13414;44.534;18.700;2022-12-19T11:30:08;5.30;1.00
25512;DHT22;13414;44.534;18.700;2022-12-19T11:32:46;5.50;1.00
25512;DHT22;13414;44.534;18.700;2022-12-19T11:35:24;5.60;1.00
25512;DHT22;13414;44.534;18.700;2022-12-19T11:37:54;5.60;1.00
25512;DHT22;13414;44.534;18.700;2022-12-19T11:40:30;5.50;98.60
25512;DHT22;13414;44.534;18.700;2022-12-19T11:43:03;5.30;1.00
25512;DHT22;13414;44.534;18.700;2022-12-19T11:45:40;5.40;99.90
25512;DHT22;13414;44.534;18.700;2022-12-19T11:48:14;5.40;99.90
25512;DHT22;13414;44.534;18.700;2022-12-19T11:50:54;5.30;1.00
25512;DHT22;13414;44.534;18.700;2022-12-19T11:53:28;5.50;1.00
25512;DHT22;13414;44.534;18.700;2022-12-19T11:55:59;5.60;1.00
25512;DHT22;13414;44.534;18.700;2022-12-19T11:58:28;5.60;1.00
25512;DHT22;13414;44.534;18.700;2022-12-19T12:01:06;5.60;1.00
25512;DHT22;13414;44.534;18.700;2022-12-19T12:04:07;5.70;1.00
25512;DHT22;13414;44.534;18.700;2022-12-19T12:06:42;5.60;1.00
25512;DHT22;13414;44.534;18.700;2022-12-19T12:09:16;5.70;1.00
25512;DHT22;13414;44.534;18.700;2022-12-19T12:11:47;5.60;99.90
25512;DHT22;13414;44.534;18.700;2022-12-19T12:14:19;5.50;1.00
25512;DHT22;13414;44.534;18.700;2022-12-19T12:16:59;5.60;1.00
25512;DHT22;13414;44.534;18.700;2022-12-19T12:19:44;5.60;1.00
25512;DHT22;13414;44.534;18.700;2022-12-19T12:22:31;5.70;1.00
25512;DHT22;13414;44.534;18.700;2022-12-19T12:25:14;5.90;1.00
25512;DHT22;13414;44.534;18.700;2022-12-19T12:27:47;6.00;1.00
25512;DHT22;13414;44.534;18.700;2022-12-19T12:30:18;6.00;75.50
25512;DHT22;13414;44.534;18.700;2022-12-19T12:32:57;5.90;1.00
25512;DHT22;13414;44.534;18.700;2022-12-19T12:35:33;5.80;1.00
25512;DHT22;13414;44.534;18.700;2022-12-19T12:38:24;5.50;99.90
25512;DHT22;13414;44.534;18.700;2022-12-19T12:41:08;5.20;99.90
25512;DHT22;13414;44.534;18.700;2022-12-19T12:43:52;5.00;99.90
25512;DHT22;13414;44.534;18.700;2022-12-19T12:46:26;4.70;99.90
25512;DHT22;13414;44.534;18.700;2022-12-19T12:48:57;4.50;99.90
25512;DHT22;13414;44.534;18.700;2022-12-19T12:51:26;4.30;99.90
25512;DHT22;13414;44.534;18.700;2022-12-19T12:54:00;4.20;99.90
25512;DHT22;13414;44.534;18.700;2022-12-19T12:56:31;4.10;99.90
25512;DHT22;13414;44.534;18.700;2022-12-19T12:59:05;4.00;99.90
25512;DHT22;13414;44.534;18.700;2022-12-19T13:01:54;4.00;99.90
25512;DHT22;13414;44.534;18.700;2022-12-19T13:04:30;3.90;99.90
25512;DHT22;13414;44.534;18.700;2022-12-19T13:07:29;3.90;99.90
25512;DHT22;13414;44.534;18.700;2022-12-19T13:10:23;4.00;99.90
25512;DHT22;13414;44.534;18.700;2022-12-19T13:12:57;4.00;99.90
25512;DHT22;13414;44.534;18.700;2022-12-19T13:15:34;4.10;99.90
25512;DHT22;13414;44.534;18.700;2022-12-19T13:18:30;4.10;99.90
25512;DHT22;13414;44.534;18.700;2022-12-19T13:21:00;4.20;99.90
25512;DHT22;13414;44.534;18.700;2022-12-19T13:23:44;4.20;99.90
25512;DHT22;13414;44.534;18.700;2022-12-19T13:26:46;4.30;99.90
25512;DHT22;13414;44.534;18.700;2022-12-19T13:29:32;4.30;99.90
25512;DHT22;13414;44.534;18.700;2022-12-19T13:32:10;4.30;99.90
25512;DHT22;13414;44.534;18.700;2022-12-19T13:34:51;4.20;99.90
25512;DHT22;13414;44.534;18.700;2022-12-19T13:37:39;4.10;99.90
25512;DHT22;13414;44.534;18.700;2022-12-19T13:40:23;4.00;99.90
25512;DHT22;13414;44.534;18.700;2022-12-19T13:43:09;3.90;99.90
25512;DHT22;13414;44.534;18.700;2022-12-19T13:45:57;3.80;99.90
25512;DHT22;13414;44.534;18.700;2022-12-19T13:48:30;3.80;99.90
25512;DHT22;13414;44.534;18.700;2022-12-19T13:51:03;3.70;99.90
25512;DHT22;13414;44.534;18.700;2022-12-19T13:53:31;3.70;99.90
25512;DHT22;13414;44.534;18.700;2022-12-19T13:56:00;3.70;99.90
25512;DHT22;13414;44.534;18.700;2022-12-19T13:58:30;3.70;99.90
25512;DHT22;13414;44.534;18.700;2022-12-19T14:01:03;3.70;99.90
25512;DHT22;13414;44.534;18.700;2022-12-19T14:03:36;3.70;99.90
25512;DHT22;13414;44.534;18.700;2022-12-19T14:06:09;3.70;99.90
25512;DHT22;13414;44.534;18.700;2022-12-19T14:08:37;3.80;99.90
25512;DHT22;13414;44.534;18.700;2022-12-19T14:11:08;3.80;99.90
25512;DHT22;13414;44.534;18.700;2022-12-19T14:13:43;3.90;99.90
25512;DHT22;13414;44.534;18.700;2022-12-19T14:16:29;3.90;99.90
25512;DHT22;13414;44.534;18.700;2022-12-19T14:18:56;3.90;99.90
25512;DHT22;13414;44.534;18.700;2022-12-19T14:21:26;3.90;99.90
25512;DHT22;13414;44.534;18.700;2022-12-19T14:24:15;3.90;99.90
25512;DHT22;13414;44.534;18.700;2022-12-19T14:26:45;3.80;99.90
25512;DHT22;13414;44.534;18.700;2022-12-19T14:29:21;3.80;99.90
25512;DHT22;13414;44.534;18.700;2022-12-19T14:31:49;3.90;99.90
25512;DHT22;13414;44.534;18.700;2022-12-19T14:34:22;3.90;99.90
25512;DHT22;13414;44.534;18.700;2022-12-19T14:36:52;3.80;99.90
25512;DHT22;13414;44.534;18.700;2022-12-19T14:39:21;3.90;99.90
25512;DHT22;13414;44.534;18.700;2022-12-19T14:41:50;3.80;99.90
25512;DHT22;13414;44.534;18.700;2022-12-19T14:44:46;3.80;99.90
25512;DHT22;13414;44.534;18.700;2022-12-19T14:47:21;3.70;99.90
25512;DHT22;13414;44.534;18.700;2022-12-19T14:49:50;3.70;99.90
25512;DHT22;13414;44.534;18.700;2022-12-19T14:52:33;3.70;99.90
25512;DHT22;13414;44.534;18.700;2022-12-19T14:55:23;3.60;99.90
25512;DHT22;13414;44.534;18.700;2022-12-19T14:57:52;3.50;99.90
25512;DHT22;13414;44.534;18.700;2022-12-19T15:00:27;3.40;99.90
25512;DHT22;13414;44.534;18.700;2022-12-19T15:02:56;3.30;99.90
25512;DHT22;13414;44.534;18.700;2022-12-19T15:05:26;3.20;99.90
25512;DHT22;13414;44.534;18.700;2022-12-19T15:07:55;3.20;99.90
25512;DHT22;13414;44.534;18.700;2022-12-19T15:10:25;3.10;99.90
25512;DHT22;13414;44.534;18.700;2022-12-19T15:12:58;3.10;99.90
25512;DHT22;13414;44.534;18.700;2022-12-19T15:15:50;3.00;99.90
25512;DHT22;13414;44.534;18.700;2022-12-19T15:18:25;2.80;99.90
25512;DHT22;13414;44.534;18.700;2022-12-19T15:20:55;2.70;99.90
25512;DHT22;13414;44.534;18.700;2022-12-19T15:23:23;2.70;99.90
25512;DHT22;13414;44.534;18.700;2022-12-19T15:25:51;2.60;99.90
25512;DHT22;13414;44.534;18.700;2022-12-19T15:28:22;2.60;99.90
25512;DHT22;13414;44.534;18.700;2022-12-19T15:30:55;2.50;99.90
25512;DHT22;13414;44.534;18.700;2022-12-19T15:33:24;2.40;99.90
25512;DHT22;13414;44.534;18.700;2022-12-19T15:35:51;2.40;99.90
25512;DHT22;13414;44.534;18.700;2022-12-19T15:38:18;2.40;99.90
25512;DHT22;13414;44.534;18.700;2022-12-19T15:40:46;2.40;99.90
25512;DHT22;13414;44.534;18.700;2022-12-19T15:43:16;2.40;99.90
25512;DHT22;13414;44.534;18.700;2022-12-19T15:45:45;2.30;99.90
25512;DHT22;13414;44.534;18.700;2022-12-19T15:48:15;2.30;99.90
25512;DHT22;13414;44.534;18.700;2022-12-19T15:50:43;2.30;99.90
25512;DHT22;13414;44.534;18.700;2022-12-19T15:53:19;2.20;99.90
25512;DHT22;13414;44.534;18.700;2022-12-19T15:55:47;2.20;99.90
25512;DHT22;13414;44.534;18.700;2022-12-19T15:58:16;2.20;99.90
25512;DHT22;13414;44.534;18.700;2022-12-19T16:00:49;2.10;99.90
25512;DHT22;13414;44.534;18.700;2022-12-19T16:03:19;2.10;99.90
25512;DHT22;13414;44.534;18.700;2022-12-19T16:05:47;2.10;99.90